Have a Safe July 4th! 

Flight Track Log - Related Links

Times and Time Zones

All times are in EST time to prevent confusion due to time zone crossing. See the N75ZM flight status page for this flight to view local times or setup timezone preferences in your user account.

Time Position Orientation Groundspeed Altitude Reporting Facility
EST Latitude Longitude Course Direction KTS MPH feet Rate Location/Type
Sun 11:23:05 AM 27.4658 -80.3186 138° Southeast 139 160 1,800  Level Miami Center
Sun 11:24:05 AM 27.4372 -80.2872 136° Southeast 134 154 2,000 250 Climbing Miami Center
Sun 11:25:05 AM 27.4297 -80.2519 103° East 133 153 2,300 350 Climbing Miami Center
Sun 11:26:00 AM 27.7344 -80.4755 336° Northwest  Level FlightAware Approximate
Sun 11:26:05 AM 27.4692 -80.2578 353° North 77 89 2,700  Level Miami Center
Sun 11:27:00 AM 27.7772 -80.4901 348° North  Level FlightAware Approximate
Sun 11:27:05 AM 27.5106 -80.2825 332° Northwest 132 152 3,300  Level Miami Center
Sun 11:28:05 AM 27.5475 -80.3047 332° Northwest 150 173 3,700 450 Climbing Miami Center
Sun 11:29:05 AM 27.5844 -80.3267 332° Northwest 150 173 4,200 450 Climbing Miami Center
Sun 11:30:05 AM 27.6194 -80.3467 333° Northwest 150 173 4,600 500 Climbing Miami Center
Sun 11:31:05 AM 27.6586 -80.3714 331° Northwest 150 173 5,200 200 Climbing Miami Center
Sun 11:32:05 AM 27.6997 -80.3936 334° Northwest 156 180 5,000 -50 Descending Miami Center
Sun 11:33:05 AM 27.7408 -80.4231 328° Northwest 161 185 5,100 300 Climbing Miami Center
Sun 11:34:05 AM 27.7803 -80.4361 344° North 161 185 5,600 450 Climbing Miami Center
Sun 11:35:05 AM 27.8217 -80.4444 350° North 156 180 6,000 500 Climbing Miami Center
Sun 11:36:05 AM 27.8678 -80.4458 358° North 151 174 6,600 506 Climbing Miami Center
Sun 11:38:03 AM 27.9500 -80.4333 North 150 173 7,500 489 Climbing Orlando TRACON
Sun 11:39:09 AM 28.0000 -80.4333 360° North 152 175 8,100 450 Climbing Orlando TRACON
Sun 11:40:03 AM 28.0333 -80.4500 336° Northwest 146 168 8,400 440 Climbing Orlando TRACON
Sun 11:40:58 AM 28.0500 -80.4833 300° West 136 157 8,900 298 Climbing Orlando TRACON
Sun 11:42:04 AM 28.0667 -80.5333 291° West 149 171 9,000 48 Climbing Orlando TRACON
Sun 11:43:04 AM 28.0833 -80.5833 291° West 161 185 9,000  Level Orlando TRACON
Sun 11:44:04 AM 28.1000 -80.6333 291° West 165 190 9,000  Level Orlando TRACON
Sun 11:45:04 AM 28.1500 -80.6500 344° North 179 206 9,000  Level Orlando TRACON
Sun 11:46:10 AM 28.2000 -80.6667 344° North 177 204 9,000  Level Orlando TRACON
Sun 11:47:16 AM 28.2333 -80.6833 336° Northwest 177 204 9,000  Level Orlando TRACON
Sun 11:48:05 AM 28.2833 -80.7000 344° North 180 207 9,000  Level Orlando TRACON
Sun 11:49:11 AM 28.3333 -80.7333 330° Northwest 178 205 9,000  Level Orlando TRACON
Sun 11:50:11 AM 28.3833 -80.7500 344° North 175 201 9,000  Level Orlando TRACON
Sun 11:51:11 AM 28.4333 -80.7667 344° North 177 204 9,000  Level Orlando TRACON
Sun 11:52:11 AM 28.4667 -80.7833 336° Northwest 176 203 9,000  Level Orlando TRACON
Sun 11:53:12 AM 28.5167 -80.8000 344° North 175 201 9,000  Level Orlando TRACON
Sun 11:54:12 AM 28.5667 -80.8167 344° North 175 201 9,000  Level Orlando TRACON
Sun 11:55:12 AM 28.6167 -80.8333 344° North 174 200 9,000  Level Orlando TRACON
Sun 11:56:12 AM 28.6500 -80.8500 336° Northwest 173 199 9,000  Level Orlando TRACON
Sun 11:57:13 AM 28.7000 -80.8667 344° North 173 199 9,000  Level Orlando TRACON
Sun 11:58:51 AM 28.7753 -80.9075 335° Northwest 173 199 9,000  Level Jacksonville Center
Sun 11:59:51 AM 28.8214 -80.9256 341° North 177 204 9,000  Level Jacksonville Center
Sun 12:00:53 PM 28.8697 -80.9414 344° North 177 204 9,000  Level Jacksonville Center
Sun 12:01:53 PM 28.9181 -80.9642 338° Northwest 178 205 9,000  Level Jacksonville Center
Sun 12:02:55 PM 28.9642 -80.9797 344° North 176 203 9,000  Level Jacksonville Center
Sun 12:03:55 PM 29.0103 -80.9978 341° North 177 204 9,000  Level Jacksonville Center
Sun 12:04:57 PM 29.0608 -81.0206 339° North 177 204 9,000  Level Jacksonville Center
Sun 12:05:58 PM 29.1028 -81.0389 339° North 177 204 9,000  Level Jacksonville Center
Sun 12:06:58 PM 29.1511 -81.0569 342° North 179 206 9,000  Level Jacksonville Center
Sun 12:08:05 PM 29.2036 -81.0775 341° North 179 206 9,000  Level Jacksonville Center
Sun 12:09:00 PM 29.2478 -81.0958 340° North 179 206 9,000  Level Jacksonville Center
Sun 12:10:01 PM 29.2939 -81.1139 341° North 177 204 9,000  Level Jacksonville Center
Sun 12:11:02 PM 29.3439 -81.1178 356° North 183 211 9,000  Level Jacksonville Center
Sun 12:12:03 PM 29.3942 -81.1217 356° North 181 208 9,000  Level Jacksonville Center
Sun 12:13:04 PM 29.4483 -81.1253 357° North 183 211 9,000  Level Jacksonville Center
Sun 12:14:05 PM 29.5006 -81.1244 North 187 215 9,000  Level Jacksonville Center
Sun 12:15:06 PM 29.5528 -81.1236 North 187 215 9,000  Level Jacksonville Center
Sun 12:16:07 PM 29.6050 -81.1272 357° North 187 215 9,000  Level Jacksonville Center
Sun 12:17:07 PM 29.6553 -81.1289 358° North 185 213 9,000  Level Jacksonville Center
Sun 12:18:08 PM 29.7094 -81.1278 North 182 209 9,000 -90 Level Jacksonville Center
Sun 12:18:14 PM 29.7136 -81.1278 360° North 183 211 8,900 -65 Descending Jacksonville Center
Sun 12:19:40 PM 29.7867 -81.1336 356° North 182 209 8,900  Level Jacksonville Center
Sun 12:20:34 PM 29.8328 -81.1494 343° North 175 201 8,900  Level Jacksonville Center
Sun 12:21:35 PM 29.8792 -81.1703 339° North 176 203 8,900  Level Jacksonville Center
Sun 12:22:36 PM 29.9253 -81.1839 346° North 177 204 8,900  Level Jacksonville Center
Sun 12:23:37 PM 29.9733 -81.1997 344° North 176 203 8,900  Level Jacksonville Center
Sun 12:24:38 PM 30.0194 -81.2158 343° North 178 205 8,900  Level Jacksonville Center
Sun 12:25:39 PM 30.0739 -81.2267 350° North 182 209 8,900  Level Jacksonville Center
Sun 12:26:40 PM 30.1203 -81.2453 341° North 178 205 8,900 52 Level Jacksonville Center
Sun 12:27:35 PM 30.1642 -81.2589 345° North 180 207 9,000 52 Climbing Jacksonville Center
Sun 12:28:36 PM 30.2122 -81.2678 351° North 180 207 9,000  Level Jacksonville Center
Sun 12:29:37 PM 30.2625 -81.2742 354° North 182 209 9,000  Level Jacksonville Center
Sun 12:30:44 PM 30.3211 -81.2828 353° North 182 209 9,000  Level Jacksonville Center
Sun 12:31:33 PM 30.3608 -81.2797 North 185 213 9,000  Level Jacksonville Center
Sun 12:32:46 PM 30.4233 -81.2761 North 179 206 9,000  Level Jacksonville Center
Sun 12:33:41 PM 30.4714 -81.2753 North 183 211 9,000  Level Jacksonville Center
Sun 12:34:36 PM 30.5172 -81.2744 North 182 209 9,000  Level Jacksonville Center
Sun 12:35:36 PM 30.5672 -81.2714 North 178 205 9,000  Level Jacksonville Center
Sun 12:36:06 PM 30.5964 -81.2661 North 180 207 9,000  Level Jacksonville Center
Sun 12:36:43 PM 30.6236 -81.2681 356° North 182 209 9,000  Level Jacksonville Center
Sun 12:37:06 PM 30.6342 -81.2678 North 180 207 9,000  Level Jacksonville Center
Sun 12:38:06 PM 30.6819 -81.2644 North 180 207 9,000  Level Jacksonville Center
Sun 12:39:06 PM 30.7447 -81.2658 359° North 168 193 9,000  Level Jacksonville Center
Sun 12:40:06 PM 30.7928 -81.2628 North 173 199 9,000  Level Jacksonville Center
Sun 12:41:06 PM 30.8386 -81.2594 North 173 199 9,000  Level Jacksonville Center
Sun 12:42:06 PM 30.8886 -81.2586 North 178 205 9,000  Level Jacksonville Center
Sun 12:43:06 PM 30.9408 -81.2553 North 178 205 9,000  Level Jacksonville Center
Sun 12:44:06 PM 30.9889 -81.2544 North 178 205 9,000  Level Jacksonville Center
Sun 12:45:06 PM 31.0369 -81.2511 North 178 205 9,000  Level Jacksonville Center
Sun 12:46:06 PM 31.0889 -81.2478 North 178 205 9,000  Level Jacksonville Center
Sun 12:47:06 PM 31.1350 -81.2469 North 178 205 9,000  Level Jacksonville Center
Sun 12:48:06 PM 31.1911 -81.2436 North 178 205 9,000  Level Jacksonville Center
Sun 12:49:06 PM 31.2433 -81.2428 North 178 205 9,000  Level Jacksonville Center
Sun 12:50:06 PM 31.2956 -81.2394 North 178 205 9,000  Level Jacksonville Center
Sun 12:51:06 PM 31.3414 -81.2386 North 178 205 9,000  Level Jacksonville Center
Sun 12:52:06 PM 31.3917 -81.2353 North 183 211 9,000  Level Jacksonville Center
Sun 12:53:06 PM 31.4500 -81.2342 North 178 205 9,000  Level Jacksonville Center
Sun 12:54:06 PM 31.4981 -81.2308 North 178 205 9,000  Level Jacksonville Center
Sun 12:55:06 PM 31.5481 -81.2300 North 178 205 9,000  Level Jacksonville Center
Sun 12:56:06 PM 31.5939 -81.2267 North 178 205 9,000  Level Jacksonville Center
Sun 12:57:06 PM 31.6483 -81.2258 North 178 205 9,000  Level Jacksonville Center
Sun 12:58:06 PM 31.6983 -81.2225 North 178 205 9,000  Level Jacksonville Center
Sun 12:59:06 PM 31.7464 -81.2192 North 178 205 9,000  Level Jacksonville Center
Sun 01:00:06 PM 31.7900 -81.2183 North 178 205 9,000  Level Jacksonville Center
Sun 01:01:06 PM 31.8422 -81.2172 North 178 205 9,000  Level Jacksonville Center
Sun 01:02:06 PM 31.8986 -81.2139 North 178 205 9,000 -98 Level Jacksonville Center
Sun 01:12:18 PM 32.2631 -81.4822 304° West 167 192 7,900 -98 Descending Jacksonville Center
Sun 01:13:00 PM 32.2680 -81.4183 304° West  Level FlightAware Approximate
Sun 01:13:18 PM 32.2864 -81.5261 302° West 167 192 7,900  Level Jacksonville Center
Sun 01:14:00 PM 32.2931 -81.4622 304° West  Level FlightAware Approximate
Sun 01:14:18 PM 32.3164 -81.5750 306° West 167 192 7,900  Level Jacksonville Center
Sun 01:15:00 PM 32.3181 -81.5061 304° West  Level FlightAware Approximate
Sun 01:15:18 PM 32.3417 -81.6164 306° West 161 185 7,900  Level Jacksonville Center
Sun 01:16:00 PM 32.3432 -81.5501 304° West  Level FlightAware Approximate
Sun 01:16:18 PM 32.3650 -81.6603 302° West 161 185 7,900  Level Jacksonville Center
Sun 01:17:51 PM 32.4053 -81.7239 307° West 163 188 7,900  Level Atlanta Center
Sun 01:18:51 PM 32.4333 -81.7697 306° West 163 188 7,900  Level Atlanta Center
Sun 01:19:51 PM 32.4569 -81.8111 304° West 163 188 7,900  Level Atlanta Center
Sun 01:20:51 PM 32.4828 -81.8597 302° West 163 188 7,900  Level Atlanta Center
Sun 01:21:51 PM 32.5047 -81.9083 298° West 163 188 7,900  Level Atlanta Center
Sun 01:22:51 PM 32.5283 -81.9497 304° West 169 194 7,900  Level Atlanta Center
Sun 01:23:51 PM 32.5519 -81.9958 301° West 169 194 7,900  Level Atlanta Center
Sun 01:24:51 PM 32.5758 -82.0472 299° West 169 194 7,900  Level Atlanta Center
Sun 01:25:51 PM 32.5994 -82.0933 301° West 169 194 7,900  Level Atlanta Center
Sun 01:26:51 PM 32.6231 -82.1397 301° West 169 194 7,900  Level Atlanta Center
Sun 01:27:51 PM 32.6469 -82.1861 301° West 169 194 7,900  Level Atlanta Center
Sun 01:28:51 PM 32.6706 -82.2350 300° West 163 188 7,900  Level Atlanta Center
Sun 01:29:51 PM 32.6942 -82.2789 303° West 163 188 7,900  Level Atlanta Center
Sun 01:30:51 PM 32.7178 -82.3256 301° West 163 188 7,900  Level Atlanta Center
Sun 01:31:51 PM 32.7414 -82.3694 303° West 163 188 7,900  Level Atlanta Center
Sun 01:32:51 PM 32.7650 -82.4208 299° West 163 188 7,900  Level Atlanta Center
Sun 01:33:51 PM 32.7886 -82.4650 302° West 163 188 7,900  Level Atlanta Center
Sun 01:34:51 PM 32.8100 -82.5089 300° West 163 188 7,900  Level Atlanta Center
Sun 01:35:51 PM 32.8333 -82.5531 302° West 163 188 7,900  Level Atlanta Center
Sun 01:36:51 PM 32.8569 -82.5997 301° West 163 188 7,900  Level Atlanta Center
Sun 01:37:51 PM 32.8783 -82.6439 300° West 163 188 7,900  Level Atlanta Center
Sun 01:38:51 PM 32.8997 -82.6881 300° West 163 188 7,900  Level Atlanta Center
Sun 01:39:51 PM 32.9211 -82.7322 300° West 163 188 7,900  Level Atlanta Center
Sun 01:40:51 PM 32.9425 -82.7739 301° West 158 182 7,900  Level Atlanta Center
Sun 01:41:51 PM 32.9658 -82.8183 302° West 158 182 7,900  Level Atlanta Center
Sun 01:42:51 PM 32.9869 -82.8625 300° West 158 182 7,900 50 Level Atlanta Center
Sun 01:43:51 PM 33.0083 -82.9069 300° West 158 182 8,000  Climbing Atlanta Center
Sun 01:44:51 PM 33.0297 -82.9486 301° West 158 182 7,900  Descending Atlanta Center
Sun 01:46:27 PM 33.0667 -83.0167 303° West 151 174 8,000 38 Climbing Atlanta TRACON
Sun 01:47:27 PM 33.0833 -83.0667 292° West 150 173 8,000 -50 Level Atlanta TRACON
Sun 01:48:27 PM 33.1167 -83.1000 320° Northwest 151 174 7,900  Descending Atlanta TRACON
Sun 01:49:27 PM 33.1333 -83.1500 292° West 150 173 8,000  Climbing Atlanta TRACON
Sun 01:50:27 PM 33.1500 -83.1833 301° West 151 174 7,900  Descending Atlanta TRACON
Sun 01:51:27 PM 33.1833 -83.2333 309° West 151 174 8,000  Climbing Atlanta TRACON
Sun 01:52:27 PM 33.2000 -83.2833 292° West 149 171 7,900 -50 Descending Atlanta TRACON
Sun 01:53:27 PM 33.2167 -83.3167 301° West 150 173 7,900  Level Atlanta TRACON
Sun 01:54:27 PM 33.2333 -83.3667 292° West 150 173 7,900  Level Atlanta TRACON
Sun 01:55:27 PM 33.2500 -83.4000 301° West 149 171 7,900 50 Level Atlanta TRACON
Sun 01:56:27 PM 33.2833 -83.4500 309° West 149 171 8,000 53 Climbing Atlanta TRACON
Sun 01:57:21 PM 33.3000 -83.4833 301° West 148 170 8,000  Level Atlanta TRACON
Sun 01:58:21 PM 33.3167 -83.5333 292° West 149 171 8,000  Level Atlanta TRACON
Sun 01:59:21 PM 33.3333 -83.5667 301° West 148 170 8,000  Level Atlanta TRACON
Sun 02:00:21 PM 33.3667 -83.6167 309° West 154 177 8,000  Level Atlanta TRACON
Sun 02:01:21 PM 33.3833 -83.6500 301° West 149 171 8,000  Level Atlanta TRACON
Sun 02:02:27 PM 33.4167 -83.7000 309° West 160 184 8,000 -190 Level Atlanta TRACON
Sun 02:03:27 PM 33.4667 -83.7167 344° North 173 199 7,600 -350 Descending Atlanta TRACON
Sun 02:04:27 PM 33.5167 -83.7333 344° North 184 212 7,300 -350 Descending Atlanta TRACON
Sun 02:05:27 PM 33.5667 -83.7500 344° North 187 215 6,900 -400 Descending Atlanta TRACON
Sun 02:06:27 PM 33.6167 -83.7667 344° North 190 219 6,500 -400 Descending Atlanta TRACON
Sun 02:07:27 PM 33.6667 -83.7833 344° North 199 229 6,100 -350 Descending Atlanta TRACON
Sun 02:08:27 PM 33.7167 -83.8000 345° North 203 234 5,800 -333 Descending Atlanta TRACON
Sun 02:09:33 PM 33.7833 -83.8333 337° Northwest 204 235 5,400 -350 Descending Atlanta TRACON
Sun 02:10:27 PM 33.8333 -83.8500 345° North 203 234 5,100 -450 Descending Atlanta TRACON
Sun 02:11:33 PM 33.8667 -83.8833 320° Northwest 182 209 4,500 -550 Descending Atlanta TRACON
Sun 02:12:27 PM 33.9000 -83.9333 309° West 166 191 4,000 -263 Descending Atlanta TRACON
Sun 02:13:27 PM 33.9167 -83.9833 292° West 158 182 4,000  Level Atlanta TRACON
Sun 02:14:27 PM 33.9333 -84.0167 301° West 147 169 4,000  Level Atlanta TRACON
Sun 02:15:27 PM 33.9333 -84.0667 270° West 146 168 4,000 -200 Level Atlanta TRACON
Sun 02:16:27 PM 33.9333 -84.1167 270° West 158 182 3,600 -350 Descending Atlanta TRACON
Sun 02:17:27 PM 33.9333 -84.1667 270° West 161 185 3,300 -300 Descending Atlanta TRACON
Sun 02:18:27 PM 33.9167 -84.2167 248° West 154 177 3,000 -400 Descending Atlanta TRACON
Sun 02:19:27 PM 33.9167 -84.2667 270° West 128 147 2,500 -737 Descending Atlanta TRACON
Sun 02:20:21 PM 33.9000 -84.2833 220° Southwest 93 107 1,600 -1,000 Descending Atlanta TRACON
Sun 02:22:00 PM 33.8667 -84.3000 275° West  Level FlightAware Approximate
Sun 02:29:00 PM 33.8756 -84.3020 275° West  Level Estimated

Login

Don't have an account? Register now (free) for customized features, flight alerts, and more!